Time;durP1;ratioP1;P1;durP2;ratioP2;P2;SDS_P1;SDS_P2;PMS_P1;PMS_P2;Temp;Humidity;BMP_temperature;BMP_pressure;BME280_temperature;BME280_humidity;BME280_pressure;Samples;Min_cycle;Max_cycle;Signal;HPM_P1;HPM_P2
2021/05/25 00:01:19;;;;;;;1.40;1.40;;;;;;;16.33;100.00;95153.25;5094192;28;20206;-85
2021/05/25 00:03:46;;;;;;;1.43;1.33;;;;;;;16.43;100.00;95142.94;5093994;28;20778;-85
2021/05/25 00:06:13;;;;;;;1.83;1.70;;;;;;;16.41;100.00;95127.22;5094148;28;20196;-85
2021/05/25 00:08:40;;;;;;;4.37;1.80;;;;;;;16.35;100.00;95125.47;5094108;28;20203;-85
2021/05/25 00:11:07;;;;;;;2.37;1.57;;;;;;;16.39;100.00;95124.00;5094149;28;20202;-85
2021/05/25 00:13:34;;;;;;;3.23;1.47;;;;;;;16.05;100.00;95127.25;5093849;28;20200;-85
2021/05/25 00:16:01;;;;;;;1.37;1.27;;;;;;;15.97;100.00;95070.06;5093985;28;20227;-85
2021/05/25 00:18:29;;;;;;;2.07;1.53;;;;;;;15.78;100.00;95057.81;5093476;28;20202;-84
2021/05/25 00:20:56;;;;;;;2.67;1.63;;;;;;;15.97;100.00;95003.81;5093768;28;20202;-85
2021/05/25 00:23:23;;;;;;;1.40;1.20;;;;;;;16.28;100.00;95036.41;5093940;28;20359;-84
2021/05/25 00:25:50;;;;;;;2.47;2.07;;;;;;;16.11;100.00;95071.50;5093483;28;20715;-85
2021/05/25 00:28:17;;;;;;;1.97;1.87;;;;;;;16.02;100.00;95037.59;5093533;28;20211;-84
2021/05/25 00:30:44;;;;;;;4.93;1.87;;;;;;;15.64;100.00;95025.34;5093922;28;20252;-84
2021/05/25 00:33:10;;;;;;;3.80;1.73;;;;;;;15.58;100.00;94920.28;5093677;28;20210;-84
2021/05/25 00:35:40;;;;;;;2.30;2.10;;;;;;;15.56;100.00;94869.41;5093604;28;20720;-85
2021/05/25 00:38:07;;;;;;;2.67;1.80;;;;;;;15.86;100.00;94869.41;5093262;28;20202;-84
2021/05/25 00:40:34;;;;;;;1.40;1.30;;;;;;;15.87;100.00;94901.00;5093420;28;20198;-84
2021/05/25 00:43:01;;;;;;;1.50;1.40;;;;;;;16.03;100.00;94938.47;5093565;28;20203;-84
2021/05/25 00:45:29;;;;;;;1.73;1.63;;;;;;;15.92;100.00;95024.84;5092922;28;20227;-83
2021/05/25 00:47:55;;;;;;;2.17;1.87;;;;;;;15.82;100.00;95006.81;5092305;28;20195;-83
2021/05/25 00:50:26;;;;;;;1.70;1.60;;;;;;;15.89;100.00;94967.81;5093221;28;20203;-84
2021/05/25 00:52:57;;;;;;;1.57;1.40;;;;;;;15.85;100.00;94993.13;5093093;28;20657;-84
2021/05/25 00:55:25;;;;;;;1.70;1.50;;;;;;;15.62;100.00;94971.75;5093225;28;20581;-84
2021/05/25 00:57:54;;;;;;;1.60;1.43;;;;;;;15.62;100.00;94911.69;5092975;28;20732;-83
2021/05/25 01:00:26;;;;;;;3.13;1.70;;;;;;;15.82;100.00;94923.88;5092926;28;20205;-85
2021/05/25 01:02:53;;;;;;;2.70;1.90;;;;;;;15.76;100.00;94917.66;5092647;28;20194;-83
2021/05/25 01:05:20;;;;;;;1.27;1.23;;;;;;;15.71;100.00;94940.53;5092695;28;20243;-84
2021/05/25 01:07:47;;;;;;;2.00;1.90;;;;;;;15.54;100.00;94885.50;5093160;28;20596;-85
2021/05/25 01:10:19;;;;;;;3.53;1.53;;;;;;;15.49;100.00;94860.72;5093100;28;20198;-85
2021/05/25 01:12:52;;;;;;;2.23;1.80;;;;;;;15.58;100.00;94832.88;5092974;28;20231;-83
2021/05/25 01:15:20;;;;;;;2.03;1.60;;;;;;;15.81;100.00;94843.59;5092963;28;20687;-84
2021/05/25 01:17:47;;;;;;;2.30;1.70;;;;;;;15.78;100.00;94864.44;5092749;28;20197;-86
2021/05/25 01:20:15;;;;;;;2.03;1.83;;;;;;;15.55;100.00;94860.66;5092788;28;20199;-85
2021/05/25 01:22:43;;;;;;;2.13;1.80;;;;;;;15.56;100.00;94827.03;5092654;28;20192;-86
2021/05/25 01:25:16;;;;;;;1.63;1.53;;;;;;;15.41;100.00;94807.06;5092675;28;20675;-84
2021/05/25 01:27:50;;;;;;;1.50;1.40;;;;;;;15.26;100.00;94813.78;5092598;28;20682;-83
2021/05/25 01:30:18;;;;;;;1.50;1.40;;;;;;;15.45;100.00;94804.78;5092845;28;20244;-84
2021/05/25 01:32:45;;;;;;;3.57;1.50;;;;;;;15.52;100.00;94813.44;5092194;28;20237;-83
2021/05/25 01:35:13;;;;;;;1.70;1.60;;;;;;;15.64;100.00;94837.28;5092262;28;20225;-85
2021/05/25 01:37:40;;;;;;;2.40;2.03;;;;;;;15.56;100.00;94827.03;5092389;28;20207;-84
2021/05/25 01:40:09;;;;;;;1.67;1.50;;;;;;;15.53;100.00;94816.88;5092278;28;20191;-84
2021/05/25 01:42:38;;;;;;;1.53;1.40;;;;;;;15.48;100.00;94811.44;5092116;28;20696;-84
2021/05/25 01:45:07;;;;;;;1.60;1.50;;;;;;;15.56;100.00;94816.44;5092538;28;20224;-84
2021/05/25 01:47:34;;;;;;;2.47;1.63;;;;;;;15.50;100.00;94831.38;5092200;28;20201;-84
2021/05/25 01:50:14;;;;;;;2.60;1.60;;;;;;;15.48;100.00;94814.09;5091906;28;20201;-84
2021/05/25 01:52:54;;;;;;;1.93;1.60;;;;;;;15.43;100.00;94775.84;5092273;28;20176;-84
2021/05/25 01:55:27;;;;;;;2.13;1.80;;;;;;;15.42;100.00;94739.84;5092093;28;20682;-83
2021/05/25 01:57:55;;;;;;;2.03;1.40;;;;;;;15.41;100.00;94746.16;5092139;28;20197;-84
2021/05/25 02:00:21;;;;;;;1.80;1.70;;;;;;;15.53;100.00;94754.13;5091702;28;20196;-84
2021/05/25 02:02:48;;;;;;;2.40;1.83;;;;;;;15.55;100.00;94765.31;5091994;28;20254;-83
2021/05/25 02:05:16;;;;;;;1.60;1.50;;;;;;;15.54;100.00;94770.81;5091767;28;20327;-84
2021/05/25 02:07:46;;;;;;;2.00;1.87;;;;;;;15.40;100.00;94747.19;5092101;28;20200;-84
2021/05/25 02:10:24;;;;;;;2.80;1.70;;;;;;;15.44;100.00;94750.19;5091772;28;20727;-84
2021/05/25 02:12:52;;;;;;;3.63;1.40;;;;;;;15.40;100.00;94728.66;5092180;28;20174;-83
2021/05/25 02:15:19;;;;;;;1.63;1.33;;;;;;;15.23;100.00;94674.75;5091708;28;20259;-84
2021/05/25 02:17:46;;;;;;;1.60;1.50;;;;;;;15.17;100.00;94649.19;5092322;28;20196;-84
2021/05/25 02:20:14;;;;;;;1.70;1.60;;;;;;;15.24;100.00;94623.44;5091924;28;20198;-83
2021/05/25 02:22:41;;;;;;;1.53;1.37;;;;;;;15.21;100.00;94608.00;5092252;28;20189;-84
2021/05/25 02:25:08;;;;;;;3.27;1.60;;;;;;;15.31;100.00;94579.16;5091734;28;20188;-85
2021/05/25 02:27:35;;;;;;;3.77;1.50;;;;;;;15.29;100.00;94580.41;5091981;28;20206;-85
2021/05/25 02:30:04;;;;;;;1.70;1.60;;;;;;;15.12;100.00;94582.91;5091645;28;20197;-85
2021/05/25 02:32:31;;;;;;;2.73;1.77;;;;;;;14.92;100.00;94530.31;5091619;28;20203;-84
2021/05/25 02:34:58;;;;;;;2.63;1.77;;;;;;;14.98;100.00;94469.34;5091629;28;20761;-85
2021/05/25 02:37:24;;;;;;;2.13;1.90;;;;;;;14.84;100.00;94423.00;5091861;28;20253;-83
2021/05/25 02:39:51;;;;;;;4.13;1.70;;;;;;;14.93;100.00;94389.09;5091490;28;20211;-85
2021/05/25 02:42:18;;;;;;;2.70;1.90;;;;;;;15.09;100.00;94403.44;5091453;28;20236;-83
2021/05/25 02:44:45;;;;;;;2.93;1.60;;;;;;;15.14;100.00;94457.28;5091438;28;20211;-83
2021/05/25 02:47:13;;;;;;;1.43;1.33;;;;;;;15.09;100.00;94470.38;5091605;28;20200;-83
2021/05/25 02:49:40;;;;;;;2.77;1.70;;;;;;;15.11;100.00;94518.59;5091751;28;20197;-84
2021/05/25 02:52:07;;;;;;;2.27;1.80;;;;;;;14.95;100.00;94482.22;5091415;28;20192;-84
2021/05/25 02:54:34;;;;;;;2.03;1.80;;;;;;;14.90;100.00;94488.22;5091345;28;20583;-84
2021/05/25 02:57:01;;;;;;;3.23;1.60;;;;;;;14.80;100.00;94419.22;5091929;28;20201;-83
2021/05/25 02:59:27;;;;;;;3.77;1.90;;;;;;;14.97;100.00;94428.06;5091143;28;20250;-84
2021/05/25 03:01:54;;;;;;;2.50;1.70;;;;;;;14.65;100.00;94432.06;5091521;28;20193;-83
2021/05/25 03:04:22;;;;;;;4.30;1.97;;;;;;;14.59;100.00;94374.84;5091207;28;20228;-84
2021/05/25 03:06:49;;;;;;;2.37;1.77;;;;;;;14.57;100.00;94353.09;5091175;28;20255;-83
2021/05/25 03:09:16;;;;;;;1.80;1.70;;;;;;;14.52;100.00;94321.28;5091246;28;20200;-84
2021/05/25 03:11:44;;;;;;;2.70;1.50;;;;;;;14.77;100.00;94327.13;5092870;28;20580;-84
2021/05/25 03:14:20;;;;;;;3.30;1.80;;;;;;;14.95;100.00;94356.06;5092403;28;20188;-83
2021/05/25 03:16:49;;;;;;;2.50;1.50;;;;;;;14.92;100.00;94412.06;5093273;28;20221;-83
2021/05/25 03:22:07;;;;;;;2.90;1.43;;;;;;;14.80;100.00;94378.75;5094749;28;20217;-88
2021/05/25 03:24:34;;;;;;;2.10;1.90;;;;;;;14.72;100.00;94333.09;5095184;28;20583;-87
2021/05/25 03:27:03;;;;;;;2.30;2.20;;;;;;;14.71;100.00;94328.03;5093624;28;20207;-86
2021/05/25 03:29:30;;;;;;;1.70;1.60;;;;;;;14.66;100.00;94290.91;5094928;28;20660;-86
2021/05/25 03:31:56;;;;;;;1.57;1.47;;;;;;;14.24;100.00;94238.97;5094916;28;20193;-85
2021/05/25 03:34:24;;;;;;;1.73;1.63;;;;;;;14.29;100.00;94188.06;5094539;28;20190;-86
2021/05/25 03:36:51;;;;;;;3.80;1.80;;;;;;;14.31;100.00;94170.16;5093061;28;20544;-85
2021/05/25 03:39:22;;;;;;;3.13;1.97;;;;;;;14.33;100.00;94144.28;5094640;28;20641;-86
2021/05/25 03:41:49;;;;;;;3.23;2.17;;;;;;;14.45;100.00;94092.22;5094358;28;20581;-86
2021/05/25 03:44:16;;;;;;;2.70;2.20;;;;;;;14.77;100.00;94126.16;5094791;28;20200;-88
2021/05/25 03:46:43;;;;;;;1.93;1.83;;;;;;;14.92;100.00;94210.25;5095256;28;20598;-86
2021/05/25 03:49:10;;;;;;;2.60;1.70;;;;;;;14.72;100.00;94272.28;5095414;28;20196;-87
2021/05/25 03:51:38;;;;;;;1.90;1.80;;;;;;;14.82;100.00;94282.25;5095134;28;20230;-86
2021/05/25 03:54:09;;;;;;;1.90;1.80;;;;;;;14.67;100.00;94290.69;5094722;28;20681;-86
2021/05/25 03:56:48;;;;;;;2.13;2.03;;;;;;;14.34;100.00;94198.78;5094541;28;20208;-86
2021/05/25 03:59:14;;;;;;;1.67;1.57;;;;;;;14.31;100.00;94093.53;5094907;28;20192;-87
2021/05/25 04:01:41;;;;;;;2.00;1.90;;;;;;;14.34;100.00;93999.75;5094844;28;20264;-87
2021/05/25 04:04:08;;;;;;;2.87;1.93;;;;;;;14.57;100.00;93967.16;5094691;28;20260;-87
2021/05/25 04:06:35;;;;;;;2.43;2.23;;;;;;;14.75;100.00;93985.44;5094731;28;20629;-87
2021/05/25 04:09:02;;;;;;;2.03;1.90;;;;;;;15.04;100.00;94049.66;5094540;28;20242;-87
2021/05/25 04:11:29;;;;;;;2.77;1.83;;;;;;;15.05;100.00;94053.88;5094726;28;20198;-87
2021/05/25 04:13:57;;;;;;;3.43;2.00;;;;;;;15.05;100.00;94026.63;5094721;28;20192;-87
2021/05/25 04:16:24;;;;;;;3.07;1.70;;;;;;;15.14;100.00;93972.28;5094689;28;20220;-87
2021/05/25 04:18:51;;;;;;;3.07;2.77;;;;;;;15.17;100.00;93982.34;5094264;28;20188;-88
2021/05/25 04:21:18;;;;;;;2.10;2.00;;;;;;;15.06;100.00;93960.25;5094820;28;20261;-88
2021/05/25 04:23:45;;;;;;;2.07;1.97;;;;;;;15.12;100.00;93897.63;5094311;28;20199;-88
2021/05/25 04:26:12;;;;;;;3.27;3.00;;;;;;;15.26;100.00;93893.59;5095844;28;20680;-87
2021/05/25 04:28:39;;;;;;;3.33;2.23;;;;;;;15.27;100.00;93919.00;5094269;28;20196;-89
2021/05/25 04:31:07;;;;;;;2.77;2.43;;;;;;;15.54;100.00;93952.69;5094641;28;20201;-89
2021/05/25 04:33:34;;;;;;;3.80;3.50;;;;;;;15.70;100.00;94007.47;5094737;28;20677;-94
2021/05/25 04:36:01;;;;;;;3.13;2.23;;;;;;;15.58;100.00;94035.88;5094817;28;20216;-89
2021/05/25 04:38:28;;;;;;;4.33;2.13;;;;;;;15.39;100.00;94052.03;5094365;28;20189;-90
2021/05/25 04:40:54;;;;;;;2.50;2.30;;;;;;;15.46;100.00;94010.31;5094156;28;20197;-92
2021/05/25 04:43:21;;;;;;;4.27;2.80;;;;;;;15.55;100.00;94012.53;5094190;28;20200;-93
2021/05/25 04:45:49;;;;;;;3.37;2.13;;;;;;;15.52;100.00;94081.84;5094223;28;20196;-92
2021/05/25 04:48:17;;;;;;;4.27;2.10;;;;;;;15.52;100.00;94140.91;5094794;28;20196;-90
2021/05/25 04:50:44;;;;;;;3.60;2.20;;;;;;;15.49;100.00;94133.44;5094367;28;20192;-93
2021/05/25 04:53:11;;;;;;;1.90;1.80;;;;;;;15.52;100.00;94185.94;5094104;28;20201;-91
2021/05/25 04:55:38;;;;;;;2.00;1.90;;;;;;;15.63;100.00;94174.44;5093988;28;20223;-92
2021/05/25 04:58:05;;;;;;;2.20;2.10;;;;;;;15.58;100.00;94139.94;5093951;28;20255;-93
2021/05/25 05:00:32;;;;;;;2.77;2.17;;;;;;;15.66;100.00;94077.88;5094286;28;20196;-90
2021/05/25 05:02:59;;;;;;;2.83;1.90;;;;;;;15.71;100.00;94059.38;5093929;28;20200;-92
2021/05/25 05:05:27;;;;;;;2.00;1.90;;;;;;;15.78;100.00;94080.41;5093596;28;20231;-90
2021/05/25 05:07:54;;;;;;;2.10;1.83;;;;;;;15.85;100.00;94070.44;5093258;28;20321;-91
2021/05/25 05:10:21;;;;;;;1.90;1.80;;;;;;;16.10;100.00;94064.66;5093391;28;20250;-87
2021/05/25 05:12:49;;;;;;;1.90;1.57;;;;;;;16.03;100.00;94170.81;5093740;28;20205;-88
2021/05/25 05:15:17;;;;;;;2.47;2.27;;;;;;;16.14;100.00;94309.56;5093143;28;20230;-87
2021/05/25 05:17:45;;;;;;;2.90;1.53;;;;;;;16.32;100.00;94380.13;5093426;28;20635;-87
2021/05/25 05:20:13;;;;;;;2.53;1.80;;;;;;;16.45;100.00;94395.69;5093230;28;20757;-87
2021/05/25 05:22:41;;;;;;;2.83;1.70;;;;;;;16.71;100.00;94433.25;5093969;28;20203;-88
2021/05/25 05:25:10;;;;;;;1.87;1.77;;;;;;;16.93;100.00;94539.47;5093088;28;20241;-87
2021/05/25 05:27:37;;;;;;;2.20;2.00;;;;;;;17.18;100.00;94586.88;5092797;28;20195;-85
2021/05/25 05:30:06;;;;;;;2.03;1.67;;;;;;;17.42;100.00;94685.78;5092923;28;20199;-86
2021/05/25 05:32:32;;;;;;;1.77;1.67;;;;;;;17.60;100.00;94842.31;5092932;28;20207;-85
2021/05/25 05:34:59;;;;;;;1.73;1.63;;;;;;;17.79;100.00;94915.50;5091922;28;20230;-85
2021/05/25 05:37:26;;;;;;;1.80;1.60;;;;;;;17.88;100.00;95002.84;5092962;28;20241;-85
2021/05/25 05:39:54;;;;;;;1.60;1.33;;;;;;;17.97;100.00;95129.81;5092539;28;20211;-86
2021/05/25 05:42:21;;;;;;;2.53;1.10;;;;;;;17.93;100.00;95189.03;5091949;28;20196;-86
2021/05/25 05:44:48;;;;;;;1.30;1.20;;;;;;;17.94;100.00;95183.50;5091559;28;20200;-86
2021/05/25 05:47:15;;;;;;;1.43;1.37;;;;;;;18.04;100.00;95188.19;5092476;28;20210;-87
2021/05/25 05:49:42;;;;;;;1.30;1.20;;;;;;;18.29;100.00;95212.72;5092632;28;20203;-86
2021/05/25 05:52:09;;;;;;;1.80;1.70;;;;;;;18.45;100.00;95239.66;5092579;28;20304;-87
2021/05/25 05:54:36;;;;;;;1.47;1.37;;;;;;;18.49;100.00;95238.94;5092496;28;20245;-87
2021/05/25 05:57:05;;;;;;;1.53;1.30;;;;;;;18.59;100.00;95227.72;5092312;28;20199;-86
2021/05/25 05:59:31;;;;;;;1.30;1.20;;;;;;;18.86;100.00;95254.66;5092702;28;20197;-86
2021/05/25 06:01:58;;;;;;;1.17;1.17;;;;;;;19.02;100.00;95325.03;5092726;28;20207;-87
2021/05/25 06:04:25;;;;;;;1.37;1.27;;;;;;;19.32;100.00;95363.97;5092222;28;20789;-86
2021/05/25 06:06:52;;;;;;;3.03;1.20;;;;;;;19.24;100.00;95368.63;5092485;28;20672;-87
2021/05/25 06:09:19;;;;;;;1.97;1.87;;;;;;;19.43;100.00;95419.09;5092452;28;20185;-86
2021/05/25 06:11:52;;;;;;;1.10;1.00;;;;;;;19.61;100.00;95426.97;5092494;28;20200;-87
2021/05/25 06:14:20;;;;;;;1.43;1.40;;;;;;;19.74;100.00;95425.09;5092400;28;20188;-86
2021/05/25 06:16:46;;;;;;;4.07;1.30;;;;;;;19.95;100.00;95395.09;5092497;28;20673;-86
2021/05/25 06:19:13;;;;;;;2.73;1.50;;;;;;;20.13;100.00;95359.44;5092295;28;20196;-87
2021/05/25 06:21:40;;;;;;;2.23;1.73;;;;;;;20.22;100.00;95411.31;5092374;28;20684;-87
2021/05/25 06:24:08;;;;;;;2.87;1.40;;;;;;;20.57;100.00;95456.53;5092506;28;20649;-87
2021/05/25 06:26:38;;;;;;;2.83;1.10;;;;;;;20.74;100.00;95469.91;5092520;28;20203;-88
2021/05/25 06:29:05;;;;;;;1.17;1.17;;;;;;;20.85;100.00;95549.16;5092558;28;20635;-87
2021/05/25 06:31:32;;;;;;;1.40;1.30;;;;;;;20.79;100.00;95554.66;5092564;28;20197;-87
2021/05/25 06:33:59;;;;;;;0.90;0.90;;;;;;;20.54;100.00;95613.69;5092142;28;20200;-87
2021/05/25 06:36:26;;;;;;;1.10;0.97;;;;;;;20.33;100.00;95647.97;5092220;28;20314;-87
2021/05/25 06:38:53;;;;;;;1.37;1.00;;;;;;;20.56;100.00;95619.63;5092551;28;20551;-87
2021/05/25 06:41:20;;;;;;;1.10;1.10;;;;;;;20.65;100.00;95603.00;5092542;28;20200;-88
2021/05/25 06:43:47;;;;;;;1.03;1.03;;;;;;;21.06;100.00;95609.09;5092263;28;20653;-87
2021/05/25 06:46:14;;;;;;;2.47;1.30;;;;;;;21.12;100.00;95658.06;5092683;28;20524;-87
2021/05/25 06:48:42;;;;;;;3.37;1.40;;;;;;;21.26;100.00;95653.25;5096411;28;20200;-89
2021/05/25 06:51:09;;;;;;;1.30;1.20;;;;;;;21.41;100.00;95680.28;5096447;28;20664;-87
2021/05/25 06:53:36;;;;;;;1.30;1.07;;;;;;;21.07;100.00;95680.19;5096444;28;20604;-89
2021/05/25 06:56:04;;;;;;;3.23;1.53;;;;;;;21.36;100.00;95669.50;5096123;28;20719;-89
2021/05/25 06:58:32;;;;;;;1.07;1.07;;;;;;;21.49;100.00;95738.69;5096546;28;20202;-88
2021/05/25 07:00:59;;;;;;;1.43;1.33;;;;;;;21.51;100.00;95736.63;5096034;28;20202;-88
2021/05/25 07:03:26;;;;;;;1.00;1.00;;;;;;;21.38;100.00;95755.63;5095863;28;20253;-89
2021/05/25 07:05:54;;;;;;;1.33;1.27;;;;;;;21.27;100.00;95749.22;5096501;28;20196;-87
2021/05/25 07:08:21;;;;;;;2.07;1.20;;;;;;;21.43;100.00;95720.94;5096196;28;20231;-87
2021/05/25 07:10:47;;;;;;;2.73;1.43;;;;;;;21.64;100.00;95796.19;5095895;28;20203;-88
2021/05/25 07:13:15;;;;;;;1.27;1.17;;;;;;;21.40;100.00;95820.31;5096076;28;20196;-90
2021/05/25 07:15:42;;;;;;;1.80;1.60;;;;;;;21.63;100.00;95795.38;5095723;28;20227;-88
2021/05/25 07:18:09;;;;;;;1.23;1.13;;;;;;;21.71;100.00;95791.50;5096151;28;20568;-89
2021/05/25 07:20:36;;;;;;;2.87;1.50;;;;;;;21.75;100.00;95819.38;5095841;28;20200;-89
2021/05/25 07:23:06;;;;;;;1.27;1.17;;;;;;;21.93;100.00;95886.06;5095864;28;20753;-88
2021/05/25 07:25:33;;;;;;;4.17;1.63;;;;;;;22.25;100.00;95878.38;5095911;28;20276;-89
2021/05/25 07:27:59;;;;;;;1.80;1.70;;;;;;;22.62;100.00;95911.91;5095749;28;20203;-88
2021/05/25 07:30:26;;;;;;;3.10;1.27;;;;;;;22.57;100.00;96025.13;5095861;28;20196;-88
2021/05/25 07:32:53;;;;;;;1.63;1.53;;;;;;;22.86;100.00;96012.53;5095802;28;20188;-88
2021/05/25 07:35:20;;;;;;;1.10;1.10;;;;;;;22.50;100.00;96054.75;5095544;28;20673;-89
2021/05/25 07:37:47;;;;;;;1.27;1.13;;;;;;;22.67;100.00;96053.97;5095448;28;20192;-89
2021/05/25 07:40:17;;;;;;;1.67;1.50;;;;;;;22.57;100.00;96022.44;5095610;28;20204;-89
2021/05/25 07:42:45;;;;;;;2.87;1.30;;;;;;;22.59;100.00;96060.53;5095377;28;20192;-88
2021/05/25 07:45:13;;;;;;;2.10;1.50;;;;;;;22.89;100.00;96079.03;5095962;28;20192;-89
2021/05/25 07:47:40;;;;;;;8.43;1.70;;;;;;;23.23;100.00;96052.28;5095398;28;20212;-88
2021/05/25 07:50:13;;;;;;;1.60;1.50;;;;;;;23.08;100.00;96192.25;5095334;28;20568;-89
2021/05/25 07:52:41;;;;;;;1.83;1.73;;;;;;;23.07;100.00;96101.34;5095630;28;20570;-88
2021/05/25 07:55:10;;;;;;;1.63;1.53;;;;;;;23.57;100.00;96156.91;5094934;28;20227;-88
2021/05/25 07:57:39;;;;;;;1.87;1.70;;;;;;;23.21;100.00;96283.13;5095235;28;20588;-89
2021/05/25 08:00:10;;;;;;;1.70;1.60;;;;;;;22.89;100.00;96269.28;5095507;28;20261;-89
2021/05/25 08:02:37;;;;;;;2.70;1.70;;;;;;;22.76;100.00;96224.03;5095163;28;20340;-89
2021/05/25 08:05:05;;;;;;;1.73;1.63;;;;;;;22.94;100.00;96298.91;5094648;28;20262;-89
2021/05/25 08:07:32;;;;;;;1.60;1.47;;;;;;;23.02;100.00;96328.03;5095176;28;20203;-88
2021/05/25 08:09:59;;;;;;;1.90;1.40;;;;;;;23.06;100.00;96333.72;5094992;28;20192;-89
2021/05/25 08:12:26;;;;;;;2.13;1.50;;;;;;;23.40;100.00;96315.94;5095097;28;20207;-89
2021/05/25 08:14:55;;;;;;;1.70;1.60;;;;;;;23.69;100.00;96284.59;5094708;28;20661;-90
2021/05/25 08:17:25;;;;;;;1.50;1.40;;;;;;;23.47;100.00;96407.81;5094935;28;20207;-89
2021/05/25 08:19:54;;;;;;;1.90;1.80;;;;;;;23.14;100.00;96429.06;5094882;28;20703;-89
2021/05/25 08:22:21;;;;;;;1.77;1.63;;;;;;;23.33;100.00;96401.06;5095057;28;20637;-87
2021/05/25 08:24:48;;;;;;;1.83;1.63;;;;;;;23.27;100.00;96469.03;5094490;28;20233;-89
2021/05/25 08:27:18;;;;;;;3.80;1.80;;;;;;;22.95;100.00;96431.06;5094514;28;20291;-91
2021/05/25 08:29:45;;;;;;;4.50;1.80;;;;;;;23.05;100.00;96463.47;5094524;28;20196;-91
2021/05/25 08:32:12;;;;;;;1.83;1.70;;;;;;;22.95;100.00;96444.47;5094602;28;20207;-90
2021/05/25 08:34:39;;;;;;;4.50;2.03;;;;;;;23.22;100.00;96451.00;5094442;28;20226;-89
2021/05/25 08:37:06;;;;;;;2.43;1.80;;;;;;;22.93;100.00;96446.53;5094433;28;20704;-90
2021/05/25 08:39:33;;;;;;;1.93;1.83;;;;;;;22.69;100.00;96435.78;5094314;28;20196;-91
2021/05/25 08:42:00;;;;;;;4.33;1.97;;;;;;;23.16;100.00;96440.38;5094594;28;20189;-89
2021/05/25 08:44:28;;;;;;;1.60;1.50;;;;;;;23.04;100.00;96400.19;5094236;28;20199;-90
2021/05/25 08:46:56;;;;;;;2.27;1.90;;;;;;;22.94;100.00;96462.41;5094300;28;20202;-89
2021/05/25 08:49:24;;;;;;;2.50;1.60;;;;;;;23.12;100.00;96436.53;5094308;28;20203;-89
2021/05/25 08:51:51;;;;;;;2.33;2.17;;;;;;;23.60;100.00;96412.09;5094390;28;20242;-90
2021/05/25 08:54:19;;;;;;;2.87;1.60;;;;;;;23.55;100.00;96475.56;5094001;28;20199;-90
2021/05/25 08:56:46;;;;;;;4.60;1.70;;;;;;;23.41;100.00;96478.47;5094258;28;20220;-91
2021/05/25 08:59:13;;;;;;;2.40;1.50;;;;;;;23.43;100.00;96449.56;5094131;28;20204;-91
2021/05/25 09:01:39;;;;;;;2.97;1.40;;;;;;;23.69;100.00;96445.59;5094224;28;20231;-92
2021/05/25 09:04:07;;;;;;;1.87;1.60;;;;;;;24.13;100.00;96445.91;5093717;28;20228;-90
2021/05/25 09:06:42;;;;;;;3.60;1.73;;;;;;;24.24;100.00;96460.31;5093864;28;20226;-90
2021/05/25 09:09:11;;;;;;;1.33;1.23;;;;;;;24.44;100.00;96392.75;5093153;28;20184;-91
2021/05/25 09:11:57;;;;;;;2.90;1.70;;;;;;;24.67;100.00;96464.34;5093988;28;20301;-91
2021/05/25 09:14:25;;;;;;;1.80;1.70;;;;;;;24.58;100.00;96436.25;5094081;28;20208;-90
2021/05/25 09:17:18;;;;;;;2.03;1.93;;;;;;;24.58;100.00;96453.19;5094132;28;20695;-89
2021/05/25 09:19:47;;;;;;;2.07;1.70;;;;;;;24.57;100.00;96429.25;5094571;28;20213;-89
2021/05/25 09:22:36;;;;;;;2.37;1.77;;;;;;;24.76;100.00;96470.94;5093566;28;20207;-90
2021/05/25 09:25:13;;;;;;;2.27;1.97;;;;;;;24.51;100.00;96427.53;5089459;28;20599;-89
2021/05/25 09:27:41;;;;;;;2.50;2.30;;;;;;;24.74;100.00;96494.56;5093914;28;20238;-90
2021/05/25 09:30:17;;;;;;;1.83;1.70;;;;;;;24.70;100.00;96497.97;5093658;28;20207;-90
2021/05/25 09:32:50;;;;;;;1.60;1.50;;;;;;;24.59;100.00;96443.25;5093787;28;20279;-90
2021/05/25 09:35:19;;;;;;;2.07;1.90;;;;;;;24.60;100.00;96504.00;5093537;28;20224;-90
2021/05/25 09:37:49;;;;;;;3.03;1.93;;;;;;;24.96;100.00;96466.97;5093325;28;20730;-91
2021/05/25 09:40:17;;;;;;;2.20;1.70;;;;;;;24.93;100.00;96503.22;5093625;28;20722;-92
2021/05/25 09:42:45;;;;;;;1.97;1.60;;;;;;;24.28;100.00;96453.44;5093669;28;20588;-90
2021/05/25 09:45:15;;;;;;;4.90;2.37;;;;;;;24.62;100.00;96539.50;5093358;28;20201;-90
2021/05/25 09:47:47;;;;;;;3.37;2.47;;;;;;;24.91;100.00;96524.97;5093199;28;20200;-91
2021/05/25 09:50:16;;;;;;;2.93;1.80;;;;;;;25.38;100.00;96483.50;5093538;28;20207;-90
2021/05/25 09:53:06;;;;;;;3.27;1.80;;;;;;;25.45;100.00;96484.13;5093234;28;20196;-90
2021/05/25 09:55:48;;;;;;;2.77;1.90;;;;;;;25.40;100.00;96515.56;5093184;28;20228;-90
2021/05/25 09:58:15;;;;;;;4.97;2.80;;;;;;;25.35;100.00;96495.56;5093029;28;20667;-90
2021/05/25 10:00:44;;;;;;;1.93;1.83;;;;;;;25.72;100.00;96489.63;5093076;28;20204;-89
2021/05/25 10:03:16;;;;;;;4.67;2.30;;;;;;;25.69;100.00;96505.47;5092666;28;20198;-89
2021/05/25 10:05:45;;;;;;;3.27;2.20;;;;;;;25.45;100.00;96529.06;5093137;28;20176;-90
2021/05/25 10:08:15;;;;;;;2.77;1.93;;;;;;;24.87;100.00;96507.72;5093302;28;20677;-90
2021/05/25 10:10:44;;;;;;;3.17;2.60;;;;;;;25.25;100.00;96463.16;5095252;28;20196;-89
2021/05/25 10:13:12;;;;;;;3.00;1.90;;;;;;;25.04;100.00;96531.09;5094222;28;20195;-88
2021/05/25 10:15:39;;;;;;;2.57;1.90;;;;;;;24.93;100.00;96511.28;5092819;28;20223;-88
2021/05/25 10:18:17;;;;;;;2.13;2.03;;;;;;;24.99;100.00;96507.63;5093026;28;20211;-88
2021/05/25 10:20:45;;;;;;;5.17;1.90;;;;;;;25.65;100.00;96450.50;5095377;28;20684;-88
2021/05/25 10:23:14;;;;;;;3.23;2.20;;;;;;;25.62;100.00;96524.47;5096840;28;20199;-90
2021/05/25 10:25:43;;;;;;;5.60;2.30;;;;;;;25.70;100.00;96439.78;5096940;28;20722;-89
2021/05/25 10:28:11;;;;;;;2.20;2.00;;;;;;;25.65;100.00;96493.56;5096806;28;20226;-89
2021/05/25 10:30:41;;;;;;;3.57;2.10;;;;;;;25.06;100.00;96507.47;5097080;28;20192;-93
2021/05/25 10:33:25;;;;;;;2.83;1.60;;;;;;;25.25;100.00;96381.63;5097338;28;20203;-94
2021/05/25 10:35:54;;;;;;;2.07;1.67;;;;;;;25.91;100.00;96385.16;5096866;28;20243;-93
2021/05/25 10:38:25;;;;;;;2.77;1.80;;;;;;;25.46;100.00;96479.56;5096733;28;20253;-87
2021/05/25 10:40:54;;;;;;;2.87;2.37;;;;;;;25.32;100.00;96488.00;5097513;28;20203;-89
2021/05/25 10:43:41;;;;;;;2.63;2.27;;;;;;;25.95;100.00;96460.88;5096591;28;20196;-90
2021/05/25 10:46:26;;;;;;;3.90;1.83;;;;;;;26.10;100.00;96517.59;5096540;28;20189;-90
2021/05/25 10:49:02;;;;;;;3.60;2.40;;;;;;;25.69;100.00;96510.84;5096684;28;20259;-90
2021/05/25 10:52:16;;;;;;;2.00;1.80;;;;;;;25.80;100.00;96464.97;5096527;28;20184;-89
2021/05/25 10:54:50;;;;;;;2.80;2.20;;;;;;;25.46;100.00;96479.56;5082648;28;20192;-90
2021/05/25 10:57:53;;;;;;;1.70;1.60;;;;;;;25.57;100.00;96475.97;5096564;28;20226;-90
2021/05/25 11:00:37;;;;;;;2.07;1.93;;;;;;;25.74;100.00;96470.53;5096537;28;20183;-92
2021/05/25 11:03:18;;;;;;;2.77;2.00;;;;;;;25.65;100.00;96472.84;5096599;28;20639;-90
2021/05/25 11:05:52;;;;;;;4.07;2.10;;;;;;;26.17;100.00;96374.63;5096584;28;20181;-91
2021/05/25 11:08:34;;;;;;;2.03;1.83;;;;;;;26.52;100.00;96442.34;5096232;28;20211;-91
2021/05/25 11:11:35;;;;;;;3.78;2.42;;;;;;;26.36;100.00;96515.19;5096297;28;20207;-88
2021/05/25 11:14:12;;;;;;;2.00;1.80;;;;;;;25.80;100.00;96467.66;5094060;28;20196;-89
2021/05/25 11:16:45;;;;;;;2.25;2.05;;;;;;;25.75;100.00;96505.28;5096003;28;20751;-90
2021/05/25 11:19:32;;;;;;;2.70;2.47;;;;;;;25.77;100.00;96435.03;5096445;28;20258;-91
2021/05/25 11:22:18;;;;;;;2.47;2.08;;;;;;;25.96;100.00;96462.50;5096267;28;20558;-91
2021/05/25 11:24:59;;;;;;;2.58;2.00;;;;;;;25.02;100.00;96464.13;5096472;28;20651;-90
2021/05/25 11:27:36;;;;;;;3.27;2.43;;;;;;;25.34;100.00;96431.25;5095888;28;20188;-92
2021/05/25 11:30:08;;;;;;;4.00;1.80;;;;;;;25.56;100.00;96475.16;5095787;28;20181;-91
2021/05/25 11:32:40;;;;;;;2.47;2.27;;;;;;;25.80;100.00;96458.78;5095048;28;20232;-91
2021/05/25 11:35:08;;;;;;;2.40;2.20;;;;;;;25.81;100.00;96434.31;5095656;28;20200;-91
2021/05/25 11:37:38;;;;;;;3.30;2.13;;;;;;;25.67;100.00;96494.94;5095694;28;20250;-90